Stamps, Texas
Current Conditions -  °F | °C
As of 4:35 AM on Sunday 21 Dec 2014 (Local Time) from KOSA Reporting Station
Overcast Overcast  
Wind Chill: 44°   Ceiling: 4200
Heat Index: 44°   Visibility: 7mi
Dew Point: 44°   Wind: 0mph
Humidity: 98%   Direction: NA
Pressure: 30.16"   Gusts: NA
Location:  32.7353°N, 94.9492°W
Report Text: KOSA 211035Z AUTO 00000KT 7SM OVC042 07/06 A3016 RMK AO1 T00670064
Loading
Personal Weather Stations






























Interactive Weather Map New forecast layout! Learn more

10-Day Weather Forecast

Advertisements
Track Severe Weather on mobile